»·PEaware :: N416DC KSMX-KBFL

N416DC :: KSMX-KBFL

FLIGHT INFORMATION

Flight Status: Arrived
Operator: Privately registered:
United States
More flights under this callsign
Pilot: Dan C. (1996)
Aircraft: PIPER PA-24 COMMANCHE
(PA24)
More flights by this aircraft type
Origin: KSMX Santa Maria Pub/Capt Hancock
United States
Destination: KBFL Meadows
United States
More flights between these airports :: More routes between these airports
Route: FLW
File this flight plan on PilotEdge
Remarks: FSX;SE AS16
Altitude:
(Current/Filed)
7,500ft
Speed:
(Current/Filed)
150kts
Departed: 31-Dec-17 03:04 PM
Arrived: 31-Dec-17 03:42 PM
Distance/Time
Traveled:
76nm/0:38
Distance/Time
To Go:
Arrived

Flight Plot

Page will automatically refresh every two minutes.


Map Options




Map Legend


Flown Route
Filed Route
Departure Airport
Arrival Airport
Navaid (VOR, NDB)
Fix

Horizontal Profiles

Position Reports

Time Latitude Longitude Heading Altitude Ground
Speed
31-Dec-17 14:48 34.906336 -120.457588 132 264ft 0kts
31-Dec-17 14:49 34.906335 -120.457586 132 264ft 0kts
31-Dec-17 14:50 34.906332 -120.457582 132 264ft 0kts
31-Dec-17 14:51 34.906329 -120.457579 132 264ft 0kts
31-Dec-17 14:52 34.906326 -120.457575 132 264ft 0kts
31-Dec-17 14:53 34.906323 -120.457571 132 264ft 0kts
31-Dec-17 14:54 34.906320 -120.457567 132 264ft 0kts
31-Dec-17 14:55 34.906318 -120.457563 132 264ft 0kts
31-Dec-17 14:56 34.906315 -120.457559 132 264ft 0kts
31-Dec-17 14:57 34.906312 -120.457555 132 264ft 0kts
31-Dec-17 14:58 34.906309 -120.457551 132 264ft 0kts
31-Dec-17 14:59 34.906306 -120.457547 131 264ft 0kts
31-Dec-17 15:00 34.906303 -120.457543 131 264ft 0kts
31-Dec-17 15:01 34.906300 -120.457540 131 264ft 0kts
31-Dec-17 15:02 34.906259 -120.457653 316 264ft 4kts
31-Dec-17 15:03 34.904999 -120.457934 138 264ft 11kts
31-Dec-17 15:04 34.901667 -120.454255 137 264ft 17kts
31-Dec-17 15:05 34.898244 -120.450305 136 264ft 16kts
31-Dec-17 15:06 34.895035 -120.446521 135 264ft 15kts
31-Dec-17 15:07 34.893456 -120.445730 184 264ft 0kts
31-Dec-17 15:08 34.893455 -120.445731 184 264ft 0kts
31-Dec-17 15:09 34.893454 -120.445731 184 264ft 0kts
31-Dec-17 15:10 34.894113 -120.447454 313 264ft 53kts
31-Dec-17 15:11 34.913678 -120.464865 352 1854ft 106kts
31-Dec-17 15:12 34.934075 -120.438455 73 3804ft 118kts
31-Dec-17 15:13 34.935474 -120.397432 91 5208ft 124kts
31-Dec-17 15:14 34.935786 -120.354664 87 6361ft 128kts
31-Dec-17 15:15 34.946503 -120.311933 65 7300ft 139kts
31-Dec-17 15:16 34.963561 -120.263985 67 7550ft 164kts
31-Dec-17 15:17 34.981018 -120.211360 68 7525ft 169kts
31-Dec-17 15:18 34.998447 -120.156662 68 7512ft 173kts
31-Dec-17 15:19 35.016483 -120.102065 67 7507ft 174kts
31-Dec-17 15:20 35.034142 -120.047382 68 7510ft 172kts
31-Dec-17 15:21 35.051898 -119.992813 67 7499ft 172kts
31-Dec-17 15:22 35.069401 -119.939115 68 7545ft 170kts
31-Dec-17 15:23 35.086904 -119.884179 67 7544ft 177kts
31-Dec-17 15:24 35.106813 -119.830656 60 7545ft 170kts
31-Dec-17 15:25 35.129148 -119.779471 60 7539ft 170kts
31-Dec-17 15:26 35.151851 -119.728354 60 7536ft 170kts
31-Dec-17 15:27 35.173927 -119.676239 64 7545ft 175kts
31-Dec-17 15:28 35.195687 -119.624195 62 7544ft 171kts
31-Dec-17 15:29 35.217569 -119.572607 62 7539ft 170kts
31-Dec-17 15:30 35.239936 -119.520347 61 7530ft 176kts
31-Dec-17 15:31 35.261677 -119.468198 62 7527ft 170kts
31-Dec-17 15:32 35.283381 -119.416611 60 7523ft 169kts
31-Dec-17 15:33 35.305243 -119.364776 62 7422ft 167kts
31-Dec-17 15:34 35.326691 -119.313123 61 6289ft 167kts
31-Dec-17 15:35 35.347421 -119.264995 62 5197ft 148kts
31-Dec-17 15:36 35.365239 -119.221586 63 4276ft 138kts
31-Dec-17 15:37 35.383328 -119.179104 63 3327ft 138kts
31-Dec-17 15:38 35.400737 -119.136685 63 2386ft 138kts
31-Dec-17 15:39 35.418320 -119.094710 61 1525ft 137kts
31-Dec-17 15:40 35.409606 -119.059080 138 1239ft 112kts
31-Dec-17 15:41 35.390170 -119.035232 136 1241ft 94kts
31-Dec-17 15:42 35.371022 -119.013051 139 1460ft 95kts
31-Dec-17 15:43 35.361336 -118.988661 22 1656ft 105kts
31-Dec-17 15:44 35.383568 -119.007450 327 1687ft 91kts
31-Dec-17 15:45 35.406098 -119.020533 315 1111ft 80kts
31-Dec-17 15:46 35.419511 -119.038601 306 776ft 70kts
31-Dec-17 15:47 35.433088 -119.055299 311 535ft 66kts
31-Dec-17 15:48 35.438560 -119.060979 72 510ft 0kts
31-Dec-17 15:49 35.438573 -119.060895 81 510ft 0kts
31-Dec-17 15:50 35.438573 -119.060893 81 510ft 0kts
31-Dec-17 15:51 35.438668 -119.059866 92 510ft 9kts
31-Dec-17 15:52 35.436272 -119.056664 135 510ft 14kts
31-Dec-17 15:53 35.434527 -119.054409 86 510ft 5kts
31-Dec-17 15:54 35.435832 -119.051741 34 510ft 7kts
31-Dec-17 15:55 35.436366 -119.051301 33 510ft 0kts
31-Dec-17 15:56 35.436367 -119.051300 33 510ft 0kts
31-Dec-17 15:57 35.436367 -119.051300 33 510ft 0kts
31-Dec-17 15:58 35.436367 -119.051300 33 510ft 0kts

Navigation Log

Ident Type
1. KSMX Airport
2. FLW Navaid
3. KBFL Airport